Burns Pinion Ridge Reserve, California Weather observations

Data are for 10 minute period ending at time listed.
 Day   Time   Solar   Ave.   Ave.  Ave.  Vector  Max.   Baro.   Total    
  of    of     Rad.   Air    Rel.  Wind   Wind   Wind  Press.  Precip.   
Year   Day            Temp.  Hum.  Speed  Dir.   Gust                    
2016   (PST)  Kw/m2    F      %     mph   deg.    mph    mb.     in.     
-------------------------------------------------------------------------
 272   11:10   0.76   75.8    31    3.9    81    11.0   878.2    0.00 
 272   11:20   0.91   75.8    31    4.5   108    11.2   878.1    0.00 
 272   11:30   0.92   76.7    30    4.8   102     9.3   878.0    0.00 
 272   11:40   0.86   77.3    30    5.2   121     9.7   877.9    0.00 
 272   11:50   0.92   77.4    30    4.9   133     9.1   877.8    0.00 
 272   12:00   0.49   77.3    30    2.8   173     7.0   877.8    0.00 
 272   12:10   0.29   75.1    32    4.6   112    11.4   877.7    0.00 
 272   12:20   0.31   74.6    32    3.3   143     7.7   877.7    0.00 
 272   12:30   0.27   74.5    32    4.6   116     8.6   877.6    0.00 
 272   12:40   0.66   75.6    31    3.9   117     8.2   877.5    0.00 
 272   12:50   0.34   76.0    30    6.8   139    13.4   877.4    0.00 
 272   13:00   0.67   75.8    31    5.9   130    11.0   877.4    0.00 
 272   13:10   0.69   78.4    28    6.4   142    12.0   877.4    0.00 
 272   13:20   0.20   74.8    32    6.7   134    10.3   877.4    0.00 
 272   13:30   0.17   73.4    32    8.3   136    16.7   877.4    0.00 
 272   13:40   0.16   73.1    33    6.0   136     9.5   877.3    0.00 
 272   13:50   0.15   72.7    35    3.9   114     6.9   877.3    0.00 
 272   14:00   0.14   72.9    34    5.1   121     8.6   877.3    0.00 
 272   14:10   0.12   72.9    34    4.6   162     7.7   877.4    0.00 
 272   14:20   0.10   71.7    36    6.8   212    18.2   877.4    0.00 
 272   14:30   0.10   70.9    39    4.1   234     6.2   877.4    0.00 
 272   14:40   0.10   70.6    40    3.7   244     6.3   877.3    0.00 
 272   14:50   0.12   71.1    38    4.7   236     7.4   877.2    0.00 
 272   15:00   0.12   71.3    38    4.5   220     6.6   877.1    0.00 
 272   15:10   0.14   72.3    36    0.6   122     3.4   877.0    0.00 
 272   15:20   0.17   73.5    32    3.1   162     6.2   877.1    0.00 
 272   15:30   0.18   74.3    31    2.2   193     4.6   877.1    0.00 
 272   15:40   0.17   74.4    30    2.6   163     4.7   877.1    0.00 
 272   15:50   0.16   74.7    29    1.9   190     4.4   877.0    0.00 
 272   16:00   0.15   74.9    29    2.5   209     4.6   877.0    0.00 
 272   16:10   0.25   75.5    28    3.0   167     7.8   877.0    0.00 
 272   16:20   0.23   77.5    28    4.3   147     8.2   877.1    0.00 
 272   16:30   0.21   74.9    32    6.7   132    11.7   877.2    0.00 
 272   16:40   0.16   74.5    34    7.0   129    13.0   877.3    0.00 
 272   16:50   0.10   72.4    34    4.2   123     8.4   877.3    0.00 
 272   17:00   0.13   73.2    33    7.7   137    12.1   877.3    0.00 
 272   17:10   0.08   71.5    36    8.4   133    13.2   877.3    0.00 
 272   17:20   0.04   69.9    40    6.8   143    11.1   877.3    0.00 
 272   17:30   0.01   69.0    44    5.5   148    10.0   877.3    0.00 
 272   17:40   0.00   68.5    45    4.6   173     7.1   877.3    0.00 
 272   17:50   0.00   67.7    47    3.8   193     6.6   877.3    0.00 
 272   18:00   0.00   67.6    45    3.5   167     7.3   877.3    0.00 
 272   18:10   0.00   67.6    44    2.6   158     5.3   877.3    0.00 
 272   18:20   0.00   67.7    43    2.4   163     4.4   877.3    0.00 
 272   18:30   0.00   67.0    44    0.8   198     1.8   877.3    0.00 
 272   18:40   0.00   65.4    46    1.0   192     2.6   877.3    0.00 
 272   18:50   0.00   64.7    47    1.6   235     3.7   877.3    0.00 
 272   19:00   0.00   65.0    47    2.3   226     4.5   877.4    0.00 
 272   19:10   0.00   67.1    42    2.7   221     6.7   877.5    0.00 
 272   19:20   0.00   67.5    41    2.4   251     4.6   877.6    0.00 
 272   19:30   0.00   66.9    42    1.9   239     3.3   877.6    0.00 
 272   19:40   0.00   65.0    45    1.9   232     4.7   877.7    0.00 
 272   19:50   0.00   65.4    44    2.5   244     4.7   877.7    0.00 
 272   20:00   0.00   65.3    44    2.3   237     4.0   877.7    0.00 
 272   20:10   0.00   64.9    45    2.3   226     3.4   877.7    0.00 
 272   20:20   0.00   64.1    46    2.7   217     4.5   877.7    0.00 
 272   20:30   0.00   64.6    45    3.6   214     5.6   877.8    0.00 
 272   20:40   0.00   66.4    42    4.1   214     6.6   877.8    0.00 
 272   20:50   0.00   66.7    41    3.1   221     4.9   877.9    0.00 
 272   21:00   0.00   65.6    43    2.3   227     4.0   877.9    0.00 
 272   21:10   0.00   64.4    46    2.5   228     3.7   877.9    0.00 
 272   21:20   0.00   64.6    46    2.6   221     4.2   877.9    0.00 
 272   21:30   0.00   64.4    46    2.6   226     3.7   877.9    0.00 
 272   21:40   0.00   63.4    46    2.3   228     4.2   877.9    0.00 
 272   21:50   0.00   62.2    48    1.4   188     2.3   878.0    0.00 
 272   22:00   0.00   61.6    50    1.2   182     2.9   878.0    0.00 
 272   22:10   0.00   61.2    50    1.7   224     2.6   878.0    0.00 
 272   22:20   0.00   60.2    50    2.1   272     4.7   878.0    0.00 
 272   22:30   0.00   60.1    47    1.9   238     2.9   878.1    0.00 
 272   22:40   0.00   60.0    45    2.4   246     3.2   878.1    0.00 
 272   22:50   0.00   59.0    46    1.3   263     2.9   878.2    0.00 
 272   23:00   0.00   58.1    47    0.2   245     1.2   878.2    0.00 
 272   23:10   100.00  99999.0   99999  99999.0   99999   99999.0   99999.0   99999.00 
 272   23:20   100.00  99999.0   99999  99999.0   99999   99999.0   99999.0   99999.00 
 272   23:30   100.00  99999.0   99999  99999.0   99999   99999.0   99999.0   99999.00 
 272   23:40   100.00  99999.0   99999  99999.0   99999   99999.0   99999.0   99999.00 
 272   23:50   100.00  99999.0   99999  99999.0   99999   99999.0   99999.0   99999.00 
 273    0:00   0.00   56.5    49    0.0     0     0.0   878.3    0.00 
 273    0:10   0.00   56.1    50    0.1   306     1.1   878.4    0.00 
 273    0:20   0.00   55.8    50    0.0   318     0.6   878.5    0.00 
 273    0:30   0.00   56.0    50    0.0     0     0.0   878.7    0.00 
 273    0:40   0.00   56.2    50    0.0     0     0.0   878.7    0.00 
 273    0:50   0.00   56.0    51    0.0     0     0.0   878.6    0.00 
 273    1:00   0.00   55.8    51    0.6   244     2.0   878.6    0.00 
 273    1:10   0.00   56.4    50    0.9   258     2.3   878.5    0.00 
 273    1:20   0.00   56.8    50    0.1   286     1.9   878.5    0.00 
 273    1:30   0.00   55.9    51    0.2   285     1.3   878.6    0.00 
 273    1:40   0.00   55.5    53    0.3   310     2.0   878.5    0.00 
 273    1:50   0.00   55.4    53    0.5   320     1.7   878.5    0.00 
 273    2:00   0.00   55.8    52    0.4   307     1.4   878.5    0.00 
 273    2:10   0.00   55.3    53    0.1   281     1.1   878.5    0.00 
 273    2:20   0.00   55.1    54    0.2   284     1.5   878.6    0.00 
 273    2:30   0.00   55.3    53    0.3   322     1.7   878.6    0.00 
 273    2:40   0.00   55.5    53    0.2   356     0.9   878.6    0.00 
 273    2:50   0.00   54.9    54    0.3   322     2.3   878.7    0.00 
 273    3:00   0.00   54.7    54    0.1   314     1.7   878.7    0.00 
 273    3:10   0.00   54.7    54    0.1   162     0.8   878.7    0.00 
 273    3:20   0.00   54.6    55    0.5   205     1.4   878.8    0.00 
 273    3:30   0.00   54.4    56    0.4   188     1.0   878.8    0.00 
 273    3:40   0.00   54.2    56    0.0   181     0.6   878.9    0.00 
 273    3:50   0.00   55.4    54    0.1   148     0.9   879.0    0.00 
 273    4:00   0.00   55.4    54    0.4   243     1.2   879.1    0.00 
 273    4:10   0.00   54.6    55    0.2   310     1.0   879.1    0.00 
 273    4:20   0.00   54.1    56    0.1   249     0.7   879.1    0.00 
 273    4:30   0.00   53.7    57    0.6   247     1.2   879.2    0.00 
 273    4:40   0.00   53.6    57    1.1   315     2.0   879.3    0.00 
 273    4:50   0.00   53.6    57    0.3   314     1.2   879.5    0.00 
 273    5:00   0.00   53.3    58    0.1   304     0.7   879.6    0.00 
 273    5:10   0.00   53.3    58    0.0     0     0.0   879.7    0.00 
 273    5:20   0.00   53.5    58    0.4   297     1.1   879.7    0.00 
 273    5:30   0.00   53.5    58    0.4   310     1.5   879.8    0.00 
 273    5:40   0.00   53.0    59    0.9   340     1.7   879.9    0.00 
 273    5:50   0.01   53.2    58    0.2   323     0.9   880.0    0.00 
 273    6:00   0.01   54.1    56    0.1   311     0.7   880.0    0.00 
 273    6:10   0.01   54.3    56    0.0     0     0.0   880.2    0.00 
 273    6:20   0.01   55.0    55    0.0     0     0.0   880.2    0.00 
 273    6:30   0.03   56.5    52    0.5   297     2.0   880.3    0.00 
 273    6:40   0.09   58.9    48    1.2   312     2.3   880.4    0.00 
 273    6:50   0.17   66.2    36    0.9   323     1.9   880.4    0.00 
 273    7:00   0.20   71.3    31    1.0   341     2.0   880.4    0.00 
 273    7:10   0.24   72.4    30    1.5   346     2.7   880.2    0.00 
 273    7:20   0.27   72.5    30    2.0   334     3.1   880.2    0.00 
 273    7:30   0.31   73.1    30    1.5   333     2.7   880.3    0.00 
 273    7:40   0.34   75.2    29    1.6    43     4.5   880.5    0.00 
 273    7:50   0.38   76.0    30    3.3   195     6.2   880.7    0.00 
 273    8:00   0.41   75.9    30    3.0   194     5.1   880.9    0.00 
 273    8:10   0.45   76.9    29    2.2   177     5.1   881.0    0.00 
 273    8:20   0.48   76.3    29    3.2   213     5.9   881.1    0.00 
 273    8:30   0.51   77.1    28    2.5   184     5.2   881.3    0.00 
 273    8:40   0.54   77.5    28    2.6   176     5.8   881.4    0.00 
 273    8:50   0.57   77.5    28    3.9   149     8.3   881.5    0.00 
 273    9:00   0.59   77.5    28    3.8   168     8.0   881.6    0.00 
 273    9:10   0.62   77.4    28    3.1   210     9.6   881.5    0.00 
 273    9:20   0.65   77.0    29    4.6   141    12.1   881.6    0.00 
 273    9:30   0.67   78.5    27    3.0   215    10.7   881.5    0.00 
 273    9:40   0.69   77.3    28    5.4   208    12.9   881.5    0.00 
 273    9:50   0.71   77.2    28    4.2   209    11.2   881.5    0.00 
 273   10:00   0.73   79.0    27    6.0   196    13.2   881.5    0.00 
 273   10:10   0.75   77.6    28    6.2   199    16.3   881.5    0.00 
 273   10:20   0.76   79.1    26    6.0   159    12.5   881.5    0.00 
 273   10:30   0.78   78.9    26    5.2   178    13.4   881.5    0.00 
 273   10:40   0.79   79.7    25    4.6   167    11.1   881.5    0.00 
 273   10:50   0.80   78.7    25    5.9   209    13.2   881.4    0.00 
 273   11:00   0.81   79.0    25    6.6   169    12.7   881.3    0.00 

Return to Burns Pinion Ridge Reserve graphs page.


Western Regional Climate Center,wrcc@dri.edu